Alum Bank, Pennsylvania
Current Conditions -  °F | °C
As of 10:29 PM on Friday 31 Oct 2014 (Local Time) from KJST Reporting Station
Haze Haze  
Wind Chill: 33°   Ceiling: 200
Heat Index: 38°   Visibility: 2.5mi
Dew Point: 37°   Wind: 7mph
Humidity: 97%   Direction: 50°NE
Pressure: 29.85"   Gusts: NA
Location:  40.18°N, 78.61°W
Report Text: KJST 010229Z AUTO 05006KT 2 1/2SM BR BKN002 BKN018 OVC024 03/03 A2985 RMK AO2 RAE19 P0000 T00330028
Loading
Personal Weather Stations






























Interactive Weather Map
Tropical Storm Tracking
New forecast layout! Learn more

10-Day Weather Forecast

Advertisements
Track Severe Weather on mobile